Airport View

Enter AWOS ICAO identifier for current METAR.

ex. KFNL

KPEX 031615Z AUTO 12005KT 10SM CLR 29/21 A3011 RMK AO2 T02880212

3 Jul 2020 16:32

Frequency: 120.35

Phone: 320-243-4538

Other Area AWOS: KLJF - KD39 - KBDH - KGHW

TAF KSTC 031120Z 0312/0412 00000KT P6SM SKC TEMPO 0312/0313 5SM BR FM031800 14006KT P6SM FEW050 SCT250 FM040100 00000KT P6SM FEW150